KCHK/CHK METAR and TAF weather

Enter ICAO airport designator
Station Type Date Time Source
KCHK METAR 2020/03/29 21:15 UTC NOAA

KCHK 292115Z AUTO 00000KT 10SM CLR 19/02 A3010 RMK AO2 T01920022


Station Type Date Time Source
KCHK Decoded METAR 2020/03/29 21:15 UTC NOAA

Chickasha, Chickasha Municipal Airport, OK, United States (KCHK) 35-05-46N 097-57-58W
Mar 29, 2020 - 05:15 PM EDT / 2020.03.29 2115 UTC
Wind: Calm:0
Visibility: 10 mile(s):0
Sky conditions: clear
Temperature: 66.6 F (19.2 C)
Dew Point: 36.0 F (2.2 C)
Relative Humidity: 32%
Pressure (altimeter): 30.1 in. Hg (1019 hPa)
ob: KCHK 292115Z AUTO 00000KT 10SM CLR 19/02 A3010 RMK AO2 T01920022
cycle: 21

Station Type Date Time Source
KCHK TAF UTC NOAA

Error!

Example: see airport list